sensor_id;sensor_type;location;lat;lon;timestamp;P1;durP1;ratioP1;P2;durP2;ratioP2
20611;SDS011;10465;42.686;23.364;2024-03-29T00:01:28;2.65;;;1.00;;
20611;SDS011;10465;42.686;23.364;2024-03-29T00:03:53;0.88;;;0.73;;
20611;SDS011;10465;42.686;23.364;2024-03-29T00:06:19;3.35;;;0.85;;
20611;SDS011;10465;42.686;23.364;2024-03-29T00:08:45;2.33;;;0.77;;
20611;SDS011;10465;42.686;23.364;2024-03-29T00:11:11;1.75;;;0.88;;
20611;SDS011;10465;42.686;23.364;2024-03-29T00:13:36;1.38;;;0.68;;
20611;SDS011;10465;42.686;23.364;2024-03-29T00:16:02;2.47;;;1.20;;
20611;SDS011;10465;42.686;23.364;2024-03-29T00:18:28;3.17;;;1.55;;
20611;SDS011;10465;42.686;23.364;2024-03-29T00:20:53;4.35;;;1.95;;
20611;SDS011;10465;42.686;23.364;2024-03-29T00:23:18;3.50;;;1.30;;
20611;SDS011;10465;42.686;23.364;2024-03-29T00:25:44;3.40;;;1.10;;
20611;SDS011;10465;42.686;23.364;2024-03-29T00:28:09;1.70;;;0.80;;
20611;SDS011;10465;42.686;23.364;2024-03-29T00:30:34;2.33;;;1.02;;
20611;SDS011;10465;42.686;23.364;2024-03-29T00:33:00;1.80;;;0.85;;
20611;SDS011;10465;42.686;23.364;2024-03-29T00:35:25;0.60;;;0.50;;
20611;SDS011;10465;42.686;23.364;2024-03-29T00:37:51;1.08;;;0.50;;
20611;SDS011;10465;42.686;23.364;2024-03-29T00:40:16;1.27;;;0.63;;
20611;SDS011;10465;42.686;23.364;2024-03-29T00:42:42;3.50;;;0.60;;
20611;SDS011;10465;42.686;23.364;2024-03-29T00:45:07;3.30;;;0.90;;
20611;SDS011;10465;42.686;23.364;2024-03-29T00:47:33;2.03;;;0.90;;
20611;SDS011;10465;42.686;23.364;2024-03-29T00:49:58;1.00;;;0.90;;
20611;SDS011;10465;42.686;23.364;2024-03-29T00:52:24;2.72;;;0.85;;
20611;SDS011;10465;42.686;23.364;2024-03-29T00:54:50;1.20;;;0.60;;
20611;SDS011;10465;42.686;23.364;2024-03-29T00:57:15;2.80;;;0.80;;
20611;SDS011;10465;42.686;23.364;2024-03-29T00:59:41;1.85;;;0.88;;
20611;SDS011;10465;42.686;23.364;2024-03-29T01:02:08;3.13;;;0.93;;
20611;SDS011;10465;42.686;23.364;2024-03-29T01:04:34;4.43;;;0.95;;
20611;SDS011;10465;42.686;23.364;2024-03-29T01:06:59;4.22;;;0.82;;
20611;SDS011;10465;42.686;23.364;2024-03-29T01:09:25;2.70;;;0.80;;
20611;SDS011;10465;42.686;23.364;2024-03-29T01:11:51;1.70;;;0.68;;
20611;SDS011;10465;42.686;23.364;2024-03-29T01:14:16;1.63;;;0.57;;
20611;SDS011;10465;42.686;23.364;2024-03-29T01:16:42;1.50;;;0.63;;
20611;SDS011;10465;42.686;23.364;2024-03-29T01:19:07;2.67;;;0.70;;
20611;SDS011;10465;42.686;23.364;2024-03-29T01:21:35;2.70;;;0.70;;
20611;SDS011;10465;42.686;23.364;2024-03-29T01:24:00;2.95;;;1.02;;
20611;SDS011;10465;42.686;23.364;2024-03-29T01:26:26;1.08;;;0.52;;
20611;SDS011;10465;42.686;23.364;2024-03-29T01:28:51;1.75;;;0.50;;
20611;SDS011;10465;42.686;23.364;2024-03-29T01:31:17;4.95;;;0.73;;
20611;SDS011;10465;42.686;23.364;2024-03-29T01:33:42;1.00;;;0.55;;
20611;SDS011;10465;42.686;23.364;2024-03-29T01:36:07;0.90;;;0.50;;
20611;SDS011;10465;42.686;23.364;2024-03-29T01:38:33;2.10;;;0.63;;
20611;SDS011;10465;42.686;23.364;2024-03-29T01:40:59;1.80;;;1.02;;
20611;SDS011;10465;42.686;23.364;2024-03-29T01:43:25;5.63;;;2.25;;
20611;SDS011;10465;42.686;23.364;2024-03-29T01:45:53;1.83;;;1.40;;
20611;SDS011;10465;42.686;23.364;2024-03-29T01:48:20;4.57;;;0.93;;
20611;SDS011;10465;42.686;23.364;2024-03-29T01:50:47;0.90;;;0.65;;
20611;SDS011;10465;42.686;23.364;2024-03-29T01:53:14;3.30;;;1.38;;
20611;SDS011;10465;42.686;23.364;2024-03-29T01:55:42;2.83;;;1.17;;
20611;SDS011;10465;42.686;23.364;2024-03-29T01:58:08;1.65;;;0.95;;
20611;SDS011;10465;42.686;23.364;2024-03-29T02:00:38;1.00;;;0.77;;
20611;SDS011;10465;42.686;23.364;2024-03-29T02:03:09;1.20;;;0.70;;
20611;SDS011;10465;42.686;23.364;2024-03-29T02:05:38;0.73;;;0.70;;
20611;SDS011;10465;42.686;23.364;2024-03-29T02:08:05;1.00;;;0.55;;
20611;SDS011;10465;42.686;23.364;2024-03-29T02:10:35;3.13;;;0.77;;
20611;SDS011;10465;42.686;23.364;2024-03-29T02:13:02;0.98;;;0.50;;
20611;SDS011;10465;42.686;23.364;2024-03-29T02:15:28;2.38;;;0.60;;
20611;SDS011;10465;42.686;23.364;2024-03-29T02:17:54;0.90;;;0.50;;
20611;SDS011;10465;42.686;23.364;2024-03-29T02:20:19;2.92;;;0.77;;
20611;SDS011;10465;42.686;23.364;2024-03-29T02:22:47;3.20;;;1.00;;
20611;SDS011;10465;42.686;23.364;2024-03-29T02:25:19;0.93;;;0.65;;
20611;SDS011;10465;42.686;23.364;2024-03-29T02:27:45;2.88;;;0.80;;
20611;SDS011;10465;42.686;23.364;2024-03-29T02:30:14;2.40;;;0.50;;
20611;SDS011;10465;42.686;23.364;2024-03-29T02:32:40;0.93;;;0.45;;
20611;SDS011;10465;42.686;23.364;2024-03-29T02:35:06;0.95;;;0.60;;
20611;SDS011;10465;42.686;23.364;2024-03-29T02:37:32;2.35;;;0.93;;
20611;SDS011;10465;42.686;23.364;2024-03-29T02:39:57;2.22;;;1.05;;
20611;SDS011;10465;42.686;23.364;2024-03-29T02:42:22;0.88;;;0.50;;
20611;SDS011;10465;42.686;23.364;2024-03-29T02:44:48;1.48;;;0.65;;
20611;SDS011;10465;42.686;23.364;2024-03-29T02:47:13;2.80;;;0.82;;
20611;SDS011;10465;42.686;23.364;2024-03-29T02:49:38;0.80;;;0.40;;
20611;SDS011;10465;42.686;23.364;2024-03-29T02:52:04;1.60;;;0.68;;
20611;SDS011;10465;42.686;23.364;2024-03-29T02:54:29;1.42;;;0.50;;
20611;SDS011;10465;42.686;23.364;2024-03-29T02:56:55;4.30;;;0.70;;
20611;SDS011;10465;42.686;23.364;2024-03-29T02:59:20;0.98;;;0.47;;
20611;SDS011;10465;42.686;23.364;2024-03-29T03:01:45;1.60;;;0.68;;
20611;SDS011;10465;42.686;23.364;2024-03-29T03:04:11;0.93;;;0.63;;
20611;SDS011;10465;42.686;23.364;2024-03-29T03:06:36;3.67;;;0.93;;
20611;SDS011;10465;42.686;23.364;2024-03-29T03:09:02;0.95;;;0.35;;
20611;SDS011;10465;42.686;23.364;2024-03-29T03:11:46;1.75;;;0.55;;
20611;SDS011;10465;42.686;23.364;2024-03-29T03:14:11;1.77;;;0.73;;
20611;SDS011;10465;42.686;23.364;2024-03-29T03:16:37;1.23;;;0.50;;
20611;SDS011;10465;42.686;23.364;2024-03-29T03:19:02;1.63;;;0.68;;
20611;SDS011;10465;42.686;23.364;2024-03-29T03:21:27;0.52;;;0.47;;
20611;SDS011;10465;42.686;23.364;2024-03-29T03:23:53;1.60;;;0.80;;
20611;SDS011;10465;42.686;23.364;2024-03-29T03:26:19;2.47;;;0.68;;
20611;SDS011;10465;42.686;23.364;2024-03-29T03:28:44;2.03;;;0.68;;
20611;SDS011;10465;42.686;23.364;2024-03-29T03:31:10;4.88;;;0.70;;
20611;SDS011;10465;42.686;23.364;2024-03-29T03:33:35;2.35;;;0.65;;
20611;SDS011;10465;42.686;23.364;2024-03-29T03:36:00;2.05;;;0.70;;
20611;SDS011;10465;42.686;23.364;2024-03-29T03:38:26;1.13;;;0.65;;
20611;SDS011;10465;42.686;23.364;2024-03-29T03:40:52;3.25;;;0.60;;
20611;SDS011;10465;42.686;23.364;2024-03-29T03:43:17;3.17;;;1.00;;
20611;SDS011;10465;42.686;23.364;2024-03-29T03:45:43;2.28;;;0.73;;
20611;SDS011;10465;42.686;23.364;2024-03-29T03:48:09;1.75;;;0.90;;
20611;SDS011;10465;42.686;23.364;2024-03-29T03:50:36;2.03;;;1.00;;
20611;SDS011;10465;42.686;23.364;2024-03-29T03:53:06;1.83;;;0.80;;
20611;SDS011;10465;42.686;23.364;2024-03-29T03:55:34;3.17;;;0.70;;
20611;SDS011;10465;42.686;23.364;2024-03-29T03:58:01;3.17;;;0.73;;
20611;SDS011;10465;42.686;23.364;2024-03-29T04:00:26;0.73;;;0.52;;
20611;SDS011;10465;42.686;23.364;2024-03-29T04:02:52;2.35;;;0.70;;
20611;SDS011;10465;42.686;23.364;2024-03-29T04:05:18;1.27;;;0.80;;
20611;SDS011;10465;42.686;23.364;2024-03-29T04:07:44;2.60;;;0.90;;
20611;SDS011;10465;42.686;23.364;2024-03-29T04:10:10;2.13;;;0.88;;
20611;SDS011;10465;42.686;23.364;2024-03-29T04:12:36;0.88;;;0.70;;
20611;SDS011;10465;42.686;23.364;2024-03-29T04:15:01;1.33;;;0.63;;
20611;SDS011;10465;42.686;23.364;2024-03-29T04:17:28;1.65;;;0.65;;
20611;SDS011;10465;42.686;23.364;2024-03-29T04:19:55;1.30;;;0.77;;
20611;SDS011;10465;42.686;23.364;2024-03-29T04:22:21;1.42;;;0.85;;
20611;SDS011;10465;42.686;23.364;2024-03-29T04:24:46;4.53;;;0.90;;
20611;SDS011;10465;42.686;23.364;2024-03-29T04:27:12;1.67;;;0.93;;
20611;SDS011;10465;42.686;23.364;2024-03-29T04:29:37;2.67;;;1.20;;
20611;SDS011;10465;42.686;23.364;2024-03-29T04:32:03;3.22;;;1.00;;
20611;SDS011;10465;42.686;23.364;2024-03-29T04:34:28;2.88;;;1.10;;
20611;SDS011;10465;42.686;23.364;2024-03-29T04:36:54;3.42;;;1.30;;
20611;SDS011;10465;42.686;23.364;2024-03-29T04:39:19;2.38;;;1.13;;
20611;SDS011;10465;42.686;23.364;2024-03-29T04:41:45;3.38;;;1.70;;
20611;SDS011;10465;42.686;23.364;2024-03-29T04:44:11;2.05;;;1.13;;
20611;SDS011;10465;42.686;23.364;2024-03-29T04:46:38;3.05;;;1.25;;
20611;SDS011;10465;42.686;23.364;2024-03-29T04:49:04;3.05;;;1.50;;
20611;SDS011;10465;42.686;23.364;2024-03-29T04:51:29;3.20;;;1.17;;
20611;SDS011;10465;42.686;23.364;2024-03-29T04:53:55;2.95;;;1.20;;
20611;SDS011;10465;42.686;23.364;2024-03-29T04:56:20;3.55;;;1.33;;
20611;SDS011;10465;42.686;23.364;2024-03-29T04:58:46;1.40;;;1.08;;
20611;SDS011;10465;42.686;23.364;2024-03-29T05:01:11;7.60;;;3.53;;
20611;SDS011;10465;42.686;23.364;2024-03-29T05:03:36;6.80;;;2.72;;
20611;SDS011;10465;42.686;23.364;2024-03-29T05:06:02;3.13;;;1.95;;
20611;SDS011;10465;42.686;23.364;2024-03-29T05:08:27;3.63;;;1.67;;
20611;SDS011;10465;42.686;23.364;2024-03-29T05:10:53;4.50;;;1.50;;
20611;SDS011;10465;42.686;23.364;2024-03-29T05:13:18;7.82;;;1.80;;
20611;SDS011;10465;42.686;23.364;2024-03-29T05:15:47;7.78;;;1.52;;
20611;SDS011;10465;42.686;23.364;2024-03-29T05:18:13;6.35;;;1.77;;
20611;SDS011;10465;42.686;23.364;2024-03-29T05:20:39;4.53;;;1.90;;
20611;SDS011;10465;42.686;23.364;2024-03-29T05:23:06;5.07;;;1.63;;
20611;SDS011;10465;42.686;23.364;2024-03-29T05:25:32;4.18;;;2.08;;
20611;SDS011;10465;42.686;23.364;2024-03-29T05:27:57;4.90;;;1.77;;
20611;SDS011;10465;42.686;23.364;2024-03-29T05:30:23;3.95;;;1.50;;
20611;SDS011;10465;42.686;23.364;2024-03-29T05:32:49;5.03;;;1.45;;
20611;SDS011;10465;42.686;23.364;2024-03-29T05:35:14;2.13;;;1.35;;
20611;SDS011;10465;42.686;23.364;2024-03-29T05:37:40;2.58;;;1.15;;
20611;SDS011;10465;42.686;23.364;2024-03-29T05:40:06;5.22;;;1.40;;
20611;SDS011;10465;42.686;23.364;2024-03-29T05:42:33;1.83;;;1.30;;
20611;SDS011;10465;42.686;23.364;2024-03-29T05:45:00;1.65;;;1.10;;
20611;SDS011;10465;42.686;23.364;2024-03-29T05:47:26;6.00;;;1.30;;
20611;SDS011;10465;42.686;23.364;2024-03-29T05:49:53;2.72;;;1.40;;
20611;SDS011;10465;42.686;23.364;2024-03-29T05:52:18;5.93;;;1.27;;
20611;SDS011;10465;42.686;23.364;2024-03-29T05:54:45;5.35;;;2.15;;
20611;SDS011;10465;42.686;23.364;2024-03-29T05:57:11;5.63;;;2.50;;
20611;SDS011;10465;42.686;23.364;2024-03-29T05:59:37;2.88;;;1.50;;
20611;SDS011;10465;42.686;23.364;2024-03-29T06:02:05;4.28;;;1.60;;
20611;SDS011;10465;42.686;23.364;2024-03-29T06:04:31;4.75;;;1.45;;
20611;SDS011;10465;42.686;23.364;2024-03-29T06:06:58;2.72;;;1.55;;
20611;SDS011;10465;42.686;23.364;2024-03-29T06:09:24;3.30;;;1.50;;
20611;SDS011;10465;42.686;23.364;2024-03-29T06:11:49;6.35;;;1.48;;
20611;SDS011;10465;42.686;23.364;2024-03-29T06:14:15;5.63;;;1.88;;
20611;SDS011;10465;42.686;23.364;2024-03-29T06:16:58;6.40;;;2.03;;
20611;SDS011;10465;42.686;23.364;2024-03-29T06:19:42;2.83;;;1.48;;
20611;SDS011;10465;42.686;23.364;2024-03-29T06:22:08;3.63;;;1.45;;
20611;SDS011;10465;42.686;23.364;2024-03-29T06:24:34;4.03;;;1.35;;
20611;SDS011;10465;42.686;23.364;2024-03-29T06:27:00;3.08;;;1.58;;
20611;SDS011;10465;42.686;23.364;2024-03-29T06:29:25;3.83;;;1.50;;
20611;SDS011;10465;42.686;23.364;2024-03-29T06:31:51;3.03;;;1.50;;
20611;SDS011;10465;42.686;23.364;2024-03-29T06:34:16;3.80;;;1.75;;
20611;SDS011;10465;42.686;23.364;2024-03-29T06:36:42;3.40;;;1.52;;
20611;SDS011;10465;42.686;23.364;2024-03-29T06:39:07;5.45;;;1.52;;
20611;SDS011;10465;42.686;23.364;2024-03-29T06:41:33;2.85;;;1.60;;
20611;SDS011;10465;42.686;23.364;2024-03-29T06:43:58;6.30;;;1.92;;
20611;SDS011;10465;42.686;23.364;2024-03-29T06:46:24;2.45;;;1.48;;
20611;SDS011;10465;42.686;23.364;2024-03-29T06:48:49;2.65;;;1.48;;
20611;SDS011;10465;42.686;23.364;2024-03-29T06:51:15;3.28;;;1.73;;
20611;SDS011;10465;42.686;23.364;2024-03-29T06:53:40;8.35;;;2.40;;
20611;SDS011;10465;42.686;23.364;2024-03-29T06:56:05;2.67;;;1.35;;
20611;SDS011;10465;42.686;23.364;2024-03-29T06:58:32;2.35;;;1.67;;
20611;SDS011;10465;42.686;23.364;2024-03-29T07:00:58;3.70;;;1.55;;
20611;SDS011;10465;42.686;23.364;2024-03-29T07:03:23;4.35;;;1.20;;
20611;SDS011;10465;42.686;23.364;2024-03-29T07:05:49;2.10;;;1.40;;
20611;SDS011;10465;42.686;23.364;2024-03-29T07:08:15;4.15;;;1.40;;
20611;SDS011;10465;42.686;23.364;2024-03-29T07:10:42;2.63;;;1.02;;
20611;SDS011;10465;42.686;23.364;2024-03-29T07:13:07;2.33;;;0.98;;
20611;SDS011;10465;42.686;23.364;2024-03-29T07:15:33;3.90;;;0.95;;
20611;SDS011;10465;42.686;23.364;2024-03-29T07:17:59;1.95;;;1.00;;
20611;SDS011;10465;42.686;23.364;2024-03-29T07:20:25;2.40;;;1.08;;
20611;SDS011;10465;42.686;23.364;2024-03-29T07:22:51;2.25;;;0.80;;
20611;SDS011;10465;42.686;23.364;2024-03-29T07:25:17;2.40;;;0.63;;
20611;SDS011;10465;42.686;23.364;2024-03-29T07:27:42;0.95;;;0.57;;
20611;SDS011;10465;42.686;23.364;2024-03-29T07:30:09;1.45;;;0.60;;
20611;SDS011;10465;42.686;23.364;2024-03-29T07:32:36;2.40;;;0.90;;
20611;SDS011;10465;42.686;23.364;2024-03-29T07:35:02;1.80;;;0.88;;
20611;SDS011;10465;42.686;23.364;2024-03-29T07:37:28;1.90;;;0.70;;
20611;SDS011;10465;42.686;23.364;2024-03-29T07:39:53;1.60;;;0.80;;
20611;SDS011;10465;42.686;23.364;2024-03-29T07:42:19;4.50;;;1.00;;
20611;SDS011;10465;42.686;23.364;2024-03-29T07:44:44;2.05;;;0.82;;
20611;SDS011;10465;42.686;23.364;2024-03-29T07:47:10;1.23;;;0.60;;
20611;SDS011;10465;42.686;23.364;2024-03-29T07:49:38;3.53;;;0.70;;
20611;SDS011;10465;42.686;23.364;2024-03-29T07:52:03;1.58;;;0.68;;
20611;SDS011;10465;42.686;23.364;2024-03-29T07:54:30;1.63;;;0.68;;
20611;SDS011;10465;42.686;23.364;2024-03-29T07:56:56;1.13;;;0.70;;
20611;SDS011;10465;42.686;23.364;2024-03-29T07:59:22;1.75;;;0.82;;
20611;SDS011;10465;42.686;23.364;2024-03-29T08:01:47;4.30;;;0.63;;
20611;SDS011;10465;42.686;23.364;2024-03-29T08:04:13;3.22;;;0.63;;
20611;SDS011;10465;42.686;23.364;2024-03-29T08:06:38;3.72;;;0.60;;
20611;SDS011;10465;42.686;23.364;2024-03-29T08:09:04;3.03;;;0.50;;
20611;SDS011;10465;42.686;23.364;2024-03-29T08:11:29;2.65;;;0.77;;
20611;SDS011;10465;42.686;23.364;2024-03-29T08:13:55;2.50;;;0.80;;
20611;SDS011;10465;42.686;23.364;2024-03-29T08:16:20;2.45;;;0.88;;
20611;SDS011;10465;42.686;23.364;2024-03-29T08:18:46;1.90;;;0.90;;
20611;SDS011;10465;42.686;23.364;2024-03-29T08:21:14;3.92;;;1.08;;
20611;SDS011;10465;42.686;23.364;2024-03-29T08:23:40;1.98;;;0.90;;
20611;SDS011;10465;42.686;23.364;2024-03-29T08:26:06;2.55;;;1.00;;
20611;SDS011;10465;42.686;23.364;2024-03-29T08:28:32;1.30;;;0.75;;
20611;SDS011;10465;42.686;23.364;2024-03-29T08:30:59;6.78;;;1.02;;
20611;SDS011;10465;42.686;23.364;2024-03-29T08:33:25;2.80;;;1.00;;
20611;SDS011;10465;42.686;23.364;2024-03-29T08:35:52;4.35;;;1.00;;
20611;SDS011;10465;42.686;23.364;2024-03-29T08:38:18;3.83;;;0.90;;
20611;SDS011;10465;42.686;23.364;2024-03-29T08:40:43;5.97;;;1.00;;
20611;SDS011;10465;42.686;23.364;2024-03-29T08:43:11;1.75;;;0.80;;
20611;SDS011;10465;42.686;23.364;2024-03-29T08:45:37;0.57;;;0.47;;
20611;SDS011;10465;42.686;23.364;2024-03-29T08:48:08;2.35;;;0.85;;
20611;SDS011;10465;42.686;23.364;2024-03-29T08:50:35;1.05;;;0.50;;
20611;SDS011;10465;42.686;23.364;2024-03-29T08:53:01;2.70;;;0.98;;
20611;SDS011;10465;42.686;23.364;2024-03-29T08:55:28;3.28;;;0.95;;
20611;SDS011;10465;42.686;23.364;2024-03-29T08:57:55;1.63;;;0.75;;
20611;SDS011;10465;42.686;23.364;2024-03-29T09:00:20;2.47;;;0.55;;
20611;SDS011;10465;42.686;23.364;2024-03-29T09:02:46;4.63;;;1.17;;
20611;SDS011;10465;42.686;23.364;2024-03-29T09:05:11;4.18;;;0.50;;
20611;SDS011;10465;42.686;23.364;2024-03-29T09:07:37;2.42;;;0.63;;
20611;SDS011;10465;42.686;23.364;2024-03-29T09:10:03;3.55;;;0.80;;
20611;SDS011;10465;42.686;23.364;2024-03-29T09:12:29;1.63;;;0.50;;
20611;SDS011;10465;42.686;23.364;2024-03-29T09:14:55;2.42;;;0.80;;
20611;SDS011;10465;42.686;23.364;2024-03-29T09:17:20;1.30;;;0.70;;
20611;SDS011;10465;42.686;23.364;2024-03-29T09:19:49;3.75;;;1.00;;
20611;SDS011;10465;42.686;23.364;2024-03-29T09:22:16;2.85;;;0.90;;
20611;SDS011;10465;42.686;23.364;2024-03-29T09:24:41;1.08;;;0.55;;
20611;SDS011;10465;42.686;23.364;2024-03-29T09:27:06;9.73;;;0.88;;
20611;SDS011;10465;42.686;23.364;2024-03-29T09:29:32;0.93;;;0.68;;
20611;SDS011;10465;42.686;23.364;2024-03-29T09:31:57;2.25;;;0.57;;
20611;SDS011;10465;42.686;23.364;2024-03-29T09:34:23;4.05;;;0.90;;
20611;SDS011;10465;42.686;23.364;2024-03-29T09:36:48;1.42;;;0.60;;
20611;SDS011;10465;42.686;23.364;2024-03-29T09:39:14;1.40;;;0.60;;
20611;SDS011;10465;42.686;23.364;2024-03-29T09:41:39;2.58;;;0.70;;
20611;SDS011;10465;42.686;23.364;2024-03-29T09:44:09;2.38;;;0.75;;
20611;SDS011;10465;42.686;23.364;2024-03-29T09:46:36;1.77;;;0.73;;
20611;SDS011;10465;42.686;23.364;2024-03-29T09:49:05;2.55;;;1.00;;
20611;SDS011;10465;42.686;23.364;2024-03-29T09:51:31;3.83;;;0.77;;
20611;SDS011;10465;42.686;23.364;2024-03-29T09:53:58;0.80;;;0.40;;
20611;SDS011;10465;42.686;23.364;2024-03-29T09:56:27;1.38;;;0.95;;
20611;SDS011;10465;42.686;23.364;2024-03-29T09:58:53;2.95;;;0.75;;
20611;SDS011;10465;42.686;23.364;2024-03-29T10:01:19;3.47;;;0.75;;
20611;SDS011;10465;42.686;23.364;2024-03-29T10:03:48;1.83;;;0.68;;
20611;SDS011;10465;42.686;23.364;2024-03-29T10:06:18;3.10;;;0.82;;
20611;SDS011;10465;42.686;23.364;2024-03-29T10:08:44;2.58;;;0.70;;
20611;SDS011;10465;42.686;23.364;2024-03-29T10:11:10;1.80;;;0.52;;
20611;SDS011;10465;42.686;23.364;2024-03-29T10:13:35;0.80;;;0.60;;
20611;SDS011;10465;42.686;23.364;2024-03-29T10:16:02;6.10;;;2.05;;
20611;SDS011;10465;42.686;23.364;2024-03-29T10:18:29;1.17;;;0.75;;
20611;SDS011;10465;42.686;23.364;2024-03-29T10:21:06;2.28;;;0.75;;
20611;SDS011;10465;42.686;23.364;2024-03-29T10:23:33;2.97;;;0.95;;
20611;SDS011;10465;42.686;23.364;2024-03-29T10:26:00;2.70;;;0.73;;
20611;SDS011;10465;42.686;23.364;2024-03-29T10:28:33;2.60;;;1.33;;
20611;SDS011;10465;42.686;23.364;2024-03-29T10:31:04;1.23;;;0.73;;
20611;SDS011;10465;42.686;23.364;2024-03-29T10:33:30;2.45;;;0.50;;
20611;SDS011;10465;42.686;23.364;2024-03-29T10:36:00;3.05;;;0.60;;
20611;SDS011;10465;42.686;23.364;2024-03-29T10:38:30;4.03;;;0.65;;
20611;SDS011;10465;42.686;23.364;2024-03-29T10:40:55;3.90;;;0.77;;
20611;SDS011;10465;42.686;23.364;2024-03-29T10:43:22;6.30;;;0.95;;
20611;SDS011;10465;42.686;23.364;2024-03-29T10:45:49;2.90;;;0.80;;
20611;SDS011;10465;42.686;23.364;2024-03-29T10:48:21;3.80;;;0.73;;
20611;SDS011;10465;42.686;23.364;2024-03-29T10:50:47;2.33;;;0.50;;
20611;SDS011;10465;42.686;23.364;2024-03-29T10:53:16;0.98;;;0.47;;
20611;SDS011;10465;42.686;23.364;2024-03-29T10:55:42;3.17;;;1.20;;
20611;SDS011;10465;42.686;23.364;2024-03-29T10:58:10;1.13;;;0.80;;
20611;SDS011;10465;42.686;23.364;2024-03-29T11:00:41;2.55;;;0.65;;
20611;SDS011;10465;42.686;23.364;2024-03-29T11:06:19;2.35;;;0.70;;
20611;SDS011;10465;42.686;23.364;2024-03-29T11:08:52;2.63;;;1.27;;
20611;SDS011;10465;42.686;23.364;2024-03-29T11:11:19;0.98;;;0.55;;
20611;SDS011;10465;42.686;23.364;2024-03-29T11:16:19;1.38;;;0.45;;
20611;SDS011;10465;42.686;23.364;2024-03-29T11:18:45;4.55;;;1.00;;
20611;SDS011;10465;42.686;23.364;2024-03-29T11:21:12;2.58;;;0.65;;
20611;SDS011;10465;42.686;23.364;2024-03-29T11:23:52;1.48;;;0.50;;
20611;SDS011;10465;42.686;23.364;2024-03-29T11:26:18;5.10;;;0.90;;
20611;SDS011;10465;42.686;23.364;2024-03-29T11:28:48;1.35;;;0.68;;
20611;SDS011;10465;42.686;23.364;2024-03-29T11:31:16;2.78;;;1.45;;
20611;SDS011;10465;42.686;23.364;2024-03-29T11:38:37;4.28;;;0.88;;
20611;SDS011;10465;42.686;23.364;2024-03-29T11:41:09;1.42;;;0.70;;
20611;SDS011;10465;42.686;23.364;2024-03-29T11:43:36;5.10;;;0.60;;
20611;SDS011;10465;42.686;23.364;2024-03-29T11:46:04;6.07;;;0.88;;
20611;SDS011;10465;42.686;23.364;2024-03-29T11:48:35;4.82;;;1.02;;
20611;SDS011;10465;42.686;23.364;2024-03-29T11:51:01;1.13;;;0.70;;
20611;SDS011;10465;42.686;23.364;2024-03-29T11:53:28;1.55;;;0.73;;
20611;SDS011;10465;42.686;23.364;2024-03-29T11:55:54;1.30;;;0.47;;
20611;SDS011;10465;42.686;23.364;2024-03-29T11:58:21;4.35;;;0.90;;
20611;SDS011;10465;42.686;23.364;2024-03-29T12:00:48;4.68;;;0.75;;
20611;SDS011;10465;42.686;23.364;2024-03-29T12:03:17;2.72;;;0.85;;
20611;SDS011;10465;42.686;23.364;2024-03-29T12:05:45;3.45;;;1.00;;
20611;SDS011;10465;42.686;23.364;2024-03-29T12:08:11;2.65;;;1.15;;
20611;SDS011;10465;42.686;23.364;2024-03-29T12:10:37;2.85;;;0.82;;
20611;SDS011;10465;42.686;23.364;2024-03-29T12:13:04;2.20;;;0.50;;
20611;SDS011;10465;42.686;23.364;2024-03-29T12:15:31;3.85;;;0.70;;
20611;SDS011;10465;42.686;23.364;2024-03-29T12:18:00;3.47;;;0.85;;
20611;SDS011;10465;42.686;23.364;2024-03-29T12:20:33;2.15;;;0.68;;
20611;SDS011;10465;42.686;23.364;2024-03-29T12:23:03;1.38;;;0.70;;
20611;SDS011;10465;42.686;23.364;2024-03-29T12:25:33;3.40;;;0.95;;
20611;SDS011;10465;42.686;23.364;2024-03-29T12:28:00;1.67;;;0.65;;
20611;SDS011;10465;42.686;23.364;2024-03-29T12:30:26;5.10;;;0.80;;
20611;SDS011;10465;42.686;23.364;2024-03-29T12:33:08;6.07;;;0.75;;
20611;SDS011;10465;42.686;23.364;2024-03-29T12:35:37;1.90;;;0.60;;
20611;SDS011;10465;42.686;23.364;2024-03-29T12:38:03;1.75;;;0.70;;
20611;SDS011;10465;42.686;23.364;2024-03-29T12:40:30;5.32;;;0.98;;
20611;SDS011;10465;42.686;23.364;2024-03-29T12:43:03;2.10;;;0.55;;
20611;SDS011;10465;42.686;23.364;2024-03-29T12:45:30;4.95;;;0.95;;
20611;SDS011;10465;42.686;23.364;2024-03-29T12:47:56;3.65;;;0.60;;
20611;SDS011;10465;42.686;23.364;2024-03-29T12:52:47;2.75;;;0.75;;
20611;SDS011;10465;42.686;23.364;2024-03-29T12:55:13;1.60;;;0.68;;
20611;SDS011;10465;42.686;23.364;2024-03-29T12:57:39;2.50;;;0.57;;
20611;SDS011;10465;42.686;23.364;2024-03-29T13:00:07;0.65;;;0.52;;
20611;SDS011;10465;42.686;23.364;2024-03-29T13:02:35;2.58;;;0.77;;
20611;SDS011;10465;42.686;23.364;2024-03-29T13:05:01;2.08;;;0.55;;
20611;SDS011;10465;42.686;23.364;2024-03-29T13:07:27;2.28;;;0.50;;
20611;SDS011;10465;42.686;23.364;2024-03-29T13:09:52;1.27;;;0.60;;
20611;SDS011;10465;42.686;23.364;2024-03-29T13:12:18;2.17;;;0.70;;
20611;SDS011;10465;42.686;23.364;2024-03-29T13:14:43;2.45;;;0.50;;
20611;SDS011;10465;42.686;23.364;2024-03-29T13:17:09;4.28;;;0.65;;
20611;SDS011;10465;42.686;23.364;2024-03-29T13:19:35;3.95;;;0.60;;
20611;SDS011;10465;42.686;23.364;2024-03-29T13:22:01;2.53;;;0.82;;
20611;SDS011;10465;42.686;23.364;2024-03-29T13:24:26;1.65;;;0.85;;
20611;SDS011;10465;42.686;23.364;2024-03-29T13:26:53;4.05;;;1.90;;
20611;SDS011;10465;42.686;23.364;2024-03-29T13:29:19;1.38;;;0.77;;
20611;SDS011;10465;42.686;23.364;2024-03-29T13:31:45;1.17;;;0.60;;
20611;SDS011;10465;42.686;23.364;2024-03-29T13:34:11;2.90;;;0.63;;
20611;SDS011;10465;42.686;23.364;2024-03-29T13:36:40;1.90;;;0.55;;
20611;SDS011;10465;42.686;23.364;2024-03-29T13:39:07;1.33;;;0.52;;
20611;SDS011;10465;42.686;23.364;2024-03-29T13:41:33;1.40;;;0.60;;
20611;SDS011;10465;42.686;23.364;2024-03-29T13:44:02;1.52;;;0.70;;
20611;SDS011;10465;42.686;23.364;2024-03-29T13:46:33;2.67;;;0.80;;
20611;SDS011;10465;42.686;23.364;2024-03-29T13:49:00;2.30;;;0.60;;
20611;SDS011;10465;42.686;23.364;2024-03-29T13:51:25;1.10;;;0.60;;
20611;SDS011;10465;42.686;23.364;2024-03-29T13:53:51;1.40;;;0.40;;
20611;SDS011;10465;42.686;23.364;2024-03-29T13:56:16;6.07;;;0.70;;
20611;SDS011;10465;42.686;23.364;2024-03-29T13:58:42;3.20;;;0.70;;
20611;SDS011;10465;42.686;23.364;2024-03-29T14:01:07;2.58;;;0.80;;
20611;SDS011;10465;42.686;23.364;2024-03-29T14:03:34;2.00;;;0.57;;
20611;SDS011;10465;42.686;23.364;2024-03-29T14:05:59;2.78;;;0.75;;
20611;SDS011;10465;42.686;23.364;2024-03-29T14:08:25;2.42;;;1.13;;
20611;SDS011;10465;42.686;23.364;2024-03-29T14:10:51;3.70;;;0.98;;
20611;SDS011;10465;42.686;23.364;2024-03-29T14:13:18;2.05;;;0.60;;
20611;SDS011;10465;42.686;23.364;2024-03-29T14:15:44;2.10;;;0.80;;
20611;SDS011;10465;42.686;23.364;2024-03-29T14:18:09;2.25;;;0.70;;
20611;SDS011;10465;42.686;23.364;2024-03-29T14:20:34;0.88;;;0.40;;
20611;SDS011;10465;42.686;23.364;2024-03-29T14:23:00;1.77;;;0.85;;
20611;SDS011;10465;42.686;23.364;2024-03-29T14:25:29;1.10;;;0.57;;
20611;SDS011;10465;42.686;23.364;2024-03-29T14:27:54;1.77;;;0.90;;
20611;SDS011;10465;42.686;23.364;2024-03-29T14:30:22;1.55;;;0.68;;
20611;SDS011;10465;42.686;23.364;2024-03-29T14:32:50;1.80;;;0.63;;
20611;SDS011;10465;42.686;23.364;2024-03-29T14:35:16;3.22;;;0.75;;
20611;SDS011;10465;42.686;23.364;2024-03-29T14:37:43;3.15;;;0.77;;
20611;SDS011;10465;42.686;23.364;2024-03-29T14:40:09;4.90;;;0.52;;
20611;SDS011;10465;42.686;23.364;2024-03-29T14:42:37;3.88;;;0.68;;